sensor_id;sensor_type;location;lat;lon;timestamp;temperature;humidity
57843;DHT22;43673;51.058;3.734;2023-08-06T00:00:29;16.00;99.90
57843;DHT22;43673;51.058;3.734;2023-08-06T00:02:58;16.00;99.90
57843;DHT22;43673;51.058;3.734;2023-08-06T00:05:23;15.90;99.90
57843;DHT22;43673;51.058;3.734;2023-08-06T00:07:50;15.90;99.90
57843;DHT22;43673;51.058;3.734;2023-08-06T00:10:16;15.90;99.90
57843;DHT22;43673;51.058;3.734;2023-08-06T00:12:45;15.90;99.90
57843;DHT22;43673;51.058;3.734;2023-08-06T00:15:12;15.90;99.90
57843;DHT22;43673;51.058;3.734;2023-08-06T00:17:38;15.90;99.90
57843;DHT22;43673;51.058;3.734;2023-08-06T00:20:04;15.90;99.90
57843;DHT22;43673;51.058;3.734;2023-08-06T00:22:38;15.90;99.90
57843;DHT22;43673;51.058;3.734;2023-08-06T00:25:04;16.00;99.90
57843;DHT22;43673;51.058;3.734;2023-08-06T00:27:30;16.10;99.90
57843;DHT22;43673;51.058;3.734;2023-08-06T00:29:58;16.10;99.90
57843;DHT22;43673;51.058;3.734;2023-08-06T00:32:23;16.20;99.90
57843;DHT22;43673;51.058;3.734;2023-08-06T00:34:49;16.30;99.90
57843;DHT22;43673;51.058;3.734;2023-08-06T00:37:18;16.30;99.90
57843;DHT22;43673;51.058;3.734;2023-08-06T00:39:44;16.40;99.90
57843;DHT22;43673;51.058;3.734;2023-08-06T00:42:10;16.40;99.90
57843;DHT22;43673;51.058;3.734;2023-08-06T00:44:37;16.40;99.90
57843;DHT22;43673;51.058;3.734;2023-08-06T00:47:03;16.30;99.90
57843;DHT22;43673;51.058;3.734;2023-08-06T00:49:28;16.40;99.90
57843;DHT22;43673;51.058;3.734;2023-08-06T00:51:55;16.40;99.90
57843;DHT22;43673;51.058;3.734;2023-08-06T00:54:22;16.40;99.90
57843;DHT22;43673;51.058;3.734;2023-08-06T00:56:48;16.50;99.90
57843;DHT22;43673;51.058;3.734;2023-08-06T00:59:14;16.60;99.90
57843;DHT22;43673;51.058;3.734;2023-08-06T01:01:40;16.50;99.90
57843;DHT22;43673;51.058;3.734;2023-08-06T01:04:06;16.50;99.90
57843;DHT22;43673;51.058;3.734;2023-08-06T01:06:48;16.50;99.90
57843;DHT22;43673;51.058;3.734;2023-08-06T01:15:14;16.50;99.90
57843;DHT22;43673;51.058;3.734;2023-08-06T01:17:41;16.40;99.90
57843;DHT22;43673;51.058;3.734;2023-08-06T01:20:07;16.40;99.90
57843;DHT22;43673;51.058;3.734;2023-08-06T01:22:33;16.50;99.90
57843;DHT22;43673;51.058;3.734;2023-08-06T01:24:59;16.50;99.90
57843;DHT22;43673;51.058;3.734;2023-08-06T01:30:13;16.40;99.90
57843;DHT22;43673;51.058;3.734;2023-08-06T01:32:44;16.30;99.90
57843;DHT22;43673;51.058;3.734;2023-08-06T01:35:12;16.40;99.90
57843;DHT22;43673;51.058;3.734;2023-08-06T01:37:40;16.40;99.90
57843;DHT22;43673;51.058;3.734;2023-08-06T01:40:13;16.30;99.90
57843;DHT22;43673;51.058;3.734;2023-08-06T01:42:39;16.30;99.90
57843;DHT22;43673;51.058;3.734;2023-08-06T01:45:07;16.30;99.90
57843;DHT22;43673;51.058;3.734;2023-08-06T01:47:32;16.20;99.90
57843;DHT22;43673;51.058;3.734;2023-08-06T01:49:58;16.10;99.90
57843;DHT22;43673;51.058;3.734;2023-08-06T01:52:24;16.20;99.90
57843;DHT22;43673;51.058;3.734;2023-08-06T01:54:50;16.00;99.90
57843;DHT22;43673;51.058;3.734;2023-08-06T01:57:15;16.00;99.90
57843;DHT22;43673;51.058;3.734;2023-08-06T01:59:41;16.10;99.90
57843;DHT22;43673;51.058;3.734;2023-08-06T02:02:07;16.10;99.90
57843;DHT22;43673;51.058;3.734;2023-08-06T02:04:32;16.10;99.90
57843;DHT22;43673;51.058;3.734;2023-08-06T02:06:58;16.10;99.90
57843;DHT22;43673;51.058;3.734;2023-08-06T02:09:24;16.10;99.90
57843;DHT22;43673;51.058;3.734;2023-08-06T02:11:49;16.10;99.90
57843;DHT22;43673;51.058;3.734;2023-08-06T02:14:15;16.00;99.90
57843;DHT22;43673;51.058;3.734;2023-08-06T02:16:41;16.00;99.90
57843;DHT22;43673;51.058;3.734;2023-08-06T02:19:06;16.00;99.90
57843;DHT22;43673;51.058;3.734;2023-08-06T02:21:32;16.00;99.90
57843;DHT22;43673;51.058;3.734;2023-08-06T02:23:58;16.00;99.90
57843;DHT22;43673;51.058;3.734;2023-08-06T02:26:24;16.00;99.90
57843;DHT22;43673;51.058;3.734;2023-08-06T02:28:49;16.00;99.90
57843;DHT22;43673;51.058;3.734;2023-08-06T02:31:15;16.00;99.90
57843;DHT22;43673;51.058;3.734;2023-08-06T02:33:41;16.00;99.90
57843;DHT22;43673;51.058;3.734;2023-08-06T02:36:06;16.00;99.90
57843;DHT22;43673;51.058;3.734;2023-08-06T02:38:33;15.90;99.90
57843;DHT22;43673;51.058;3.734;2023-08-06T02:40:58;15.90;99.90
57843;DHT22;43673;51.058;3.734;2023-08-06T02:43:24;15.90;99.90
57843;DHT22;43673;51.058;3.734;2023-08-06T02:45:50;15.90;99.90
57843;DHT22;43673;51.058;3.734;2023-08-06T02:48:16;15.70;99.90
57843;DHT22;43673;51.058;3.734;2023-08-06T02:50:43;15.60;99.90
57843;DHT22;43673;51.058;3.734;2023-08-06T02:53:10;15.50;99.90
57843;DHT22;43673;51.058;3.734;2023-08-06T02:55:36;15.40;99.90
57843;DHT22;43673;51.058;3.734;2023-08-06T02:58:02;15.40;99.90
57843;DHT22;43673;51.058;3.734;2023-08-06T03:00:28;15.30;99.90
57843;DHT22;43673;51.058;3.734;2023-08-06T03:02:54;15.30;99.90
57843;DHT22;43673;51.058;3.734;2023-08-06T03:05:19;15.30;99.90
57843;DHT22;43673;51.058;3.734;2023-08-06T03:07:45;15.20;99.90
57843;DHT22;43673;51.058;3.734;2023-08-06T03:10:11;15.30;99.90
57843;DHT22;43673;51.058;3.734;2023-08-06T03:12:37;15.30;99.90
57843;DHT22;43673;51.058;3.734;2023-08-06T03:15:02;15.10;99.90
57843;DHT22;43673;51.058;3.734;2023-08-06T03:17:28;15.10;99.90
57843;DHT22;43673;51.058;3.734;2023-08-06T03:19:54;15.10;99.90
57843;DHT22;43673;51.058;3.734;2023-08-06T03:22:20;15.10;99.90
57843;DHT22;43673;51.058;3.734;2023-08-06T03:24:45;15.10;99.90
57843;DHT22;43673;51.058;3.734;2023-08-06T03:27:11;15.10;99.90
57843;DHT22;43673;51.058;3.734;2023-08-06T03:29:36;15.10;99.90
57843;DHT22;43673;51.058;3.734;2023-08-06T03:32:02;15.20;99.90
57843;DHT22;43673;51.058;3.734;2023-08-06T03:34:28;15.20;99.90
57843;DHT22;43673;51.058;3.734;2023-08-06T03:36:54;15.20;99.90
57843;DHT22;43673;51.058;3.734;2023-08-06T03:39:19;15.20;99.90
57843;DHT22;43673;51.058;3.734;2023-08-06T03:41:45;15.20;99.90
57843;DHT22;43673;51.058;3.734;2023-08-06T03:44:11;15.20;99.90
57843;DHT22;43673;51.058;3.734;2023-08-06T03:46:37;15.20;99.90
57843;DHT22;43673;51.058;3.734;2023-08-06T03:49:03;15.30;99.90
57843;DHT22;43673;51.058;3.734;2023-08-06T03:51:29;15.20;99.90
57843;DHT22;43673;51.058;3.734;2023-08-06T03:53:54;15.30;99.90
57843;DHT22;43673;51.058;3.734;2023-08-06T03:56:20;15.30;99.90
57843;DHT22;43673;51.058;3.734;2023-08-06T03:58:46;15.30;99.90
57843;DHT22;43673;51.058;3.734;2023-08-06T04:01:12;15.30;99.90
57843;DHT22;43673;51.058;3.734;2023-08-06T04:03:38;15.40;99.90
57843;DHT22;43673;51.058;3.734;2023-08-06T04:06:04;15.30;99.90
57843;DHT22;43673;51.058;3.734;2023-08-06T04:08:30;15.30;99.90
57843;DHT22;43673;51.058;3.734;2023-08-06T04:11:05;15.40;99.90
57843;DHT22;43673;51.058;3.734;2023-08-06T04:13:54;15.30;99.90
57843;DHT22;43673;51.058;3.734;2023-08-06T04:16:29;15.30;99.90
57843;DHT22;43673;51.058;3.734;2023-08-06T04:19:03;15.30;99.90
57843;DHT22;43673;51.058;3.734;2023-08-06T04:21:35;15.40;99.90
57843;DHT22;43673;51.058;3.734;2023-08-06T04:24:01;15.30;99.90
57843;DHT22;43673;51.058;3.734;2023-08-06T04:26:27;15.30;99.90
57843;DHT22;43673;51.058;3.734;2023-08-06T04:28:53;15.40;99.90
57843;DHT22;43673;51.058;3.734;2023-08-06T04:31:21;15.40;99.90
57843;DHT22;43673;51.058;3.734;2023-08-06T04:33:47;15.40;99.90
57843;DHT22;43673;51.058;3.734;2023-08-06T04:36:22;15.30;99.90
57843;DHT22;43673;51.058;3.734;2023-08-06T04:38:48;15.30;99.90
57843;DHT22;43673;51.058;3.734;2023-08-06T04:41:17;15.40;99.90
57843;DHT22;43673;51.058;3.734;2023-08-06T04:43:43;15.40;99.90
57843;DHT22;43673;51.058;3.734;2023-08-06T04:46:12;15.40;99.90
57843;DHT22;43673;51.058;3.734;2023-08-06T04:49:00;15.40;99.90
57843;DHT22;43673;51.058;3.734;2023-08-06T04:57:35;15.30;99.90
57843;DHT22;43673;51.058;3.734;2023-08-06T05:00:01;15.30;99.90
57843;DHT22;43673;51.058;3.734;2023-08-06T05:02:30;15.40;99.90
57843;DHT22;43673;51.058;3.734;2023-08-06T05:04:58;15.40;99.90
57843;DHT22;43673;51.058;3.734;2023-08-06T05:07:23;15.40;99.90
57843;DHT22;43673;51.058;3.734;2023-08-06T05:09:52;15.40;99.90
57843;DHT22;43673;51.058;3.734;2023-08-06T05:12:20;15.40;99.90
57843;DHT22;43673;51.058;3.734;2023-08-06T05:14:46;15.40;99.90
57843;DHT22;43673;51.058;3.734;2023-08-06T05:17:15;15.40;99.90
57843;DHT22;43673;51.058;3.734;2023-08-06T05:19:43;15.60;99.90
57843;DHT22;43673;51.058;3.734;2023-08-06T05:22:09;15.40;99.90
57843;DHT22;43673;51.058;3.734;2023-08-06T05:24:35;15.40;99.90
57843;DHT22;43673;51.058;3.734;2023-08-06T05:27:01;15.50;99.90
57843;DHT22;43673;51.058;3.734;2023-08-06T05:29:27;15.50;99.90
57843;DHT22;43673;51.058;3.734;2023-08-06T05:31:53;15.40;99.90
57843;DHT22;43673;51.058;3.734;2023-08-06T05:34:19;15.60;99.90
57843;DHT22;43673;51.058;3.734;2023-08-06T05:36:45;15.70;99.90
57843;DHT22;43673;51.058;3.734;2023-08-06T05:39:11;15.70;99.90
57843;DHT22;43673;51.058;3.734;2023-08-06T05:41:49;15.70;99.90
57843;DHT22;43673;51.058;3.734;2023-08-06T05:44:16;15.80;99.90
57843;DHT22;43673;51.058;3.734;2023-08-06T05:46:42;15.80;99.90
57843;DHT22;43673;51.058;3.734;2023-08-06T05:49:10;15.70;99.90
57843;DHT22;43673;51.058;3.734;2023-08-06T05:51:38;15.80;99.90
57843;DHT22;43673;51.058;3.734;2023-08-06T05:54:06;15.90;99.90
57843;DHT22;43673;51.058;3.734;2023-08-06T05:56:32;16.00;99.90
57843;DHT22;43673;51.058;3.734;2023-08-06T05:58:58;16.10;99.90
57843;DHT22;43673;51.058;3.734;2023-08-06T06:01:27;16.30;99.90
57843;DHT22;43673;51.058;3.734;2023-08-06T06:03:53;16.40;99.90
57843;DHT22;43673;51.058;3.734;2023-08-06T06:06:18;16.30;99.90
57843;DHT22;43673;51.058;3.734;2023-08-06T06:08:51;16.00;99.90
57843;DHT22;43673;51.058;3.734;2023-08-06T06:11:16;15.80;99.90
57843;DHT22;43673;51.058;3.734;2023-08-06T06:18:56;16.00;99.90
57843;DHT22;43673;51.058;3.734;2023-08-06T06:21:24;16.00;99.90
57843;DHT22;43673;51.058;3.734;2023-08-06T06:23:51;16.00;99.90
57843;DHT22;43673;51.058;3.734;2023-08-06T06:26:18;16.30;99.90
57843;DHT22;43673;51.058;3.734;2023-08-06T06:28:44;16.40;99.90
57843;DHT22;43673;51.058;3.734;2023-08-06T06:31:10;16.40;99.90
57843;DHT22;43673;51.058;3.734;2023-08-06T06:33:36;16.30;99.90
57843;DHT22;43673;51.058;3.734;2023-08-06T06:36:02;16.20;99.90
57843;DHT22;43673;51.058;3.734;2023-08-06T06:38:29;16.20;99.90
57843;DHT22;43673;51.058;3.734;2023-08-06T06:40:55;15.90;99.90
57843;DHT22;43673;51.058;3.734;2023-08-06T06:43:22;15.70;99.90
57843;DHT22;43673;51.058;3.734;2023-08-06T06:45:56;15.80;99.90
57843;DHT22;43673;51.058;3.734;2023-08-06T06:48:23;15.90;99.90
57843;DHT22;43673;51.058;3.734;2023-08-06T06:51:12;16.10;99.90
57843;DHT22;43673;51.058;3.734;2023-08-06T06:56:17;16.40;99.90
57843;DHT22;43673;51.058;3.734;2023-08-06T06:58:43;16.40;99.90
57843;DHT22;43673;51.058;3.734;2023-08-06T07:01:09;16.50;99.90
57843;DHT22;43673;51.058;3.734;2023-08-06T07:03:46;16.50;99.90
57843;DHT22;43673;51.058;3.734;2023-08-06T07:06:15;16.60;99.90
57843;DHT22;43673;51.058;3.734;2023-08-06T07:08:41;16.40;99.90
57843;DHT22;43673;51.058;3.734;2023-08-06T07:11:07;16.70;99.90
57843;DHT22;43673;51.058;3.734;2023-08-06T07:13:34;16.90;99.90
57843;DHT22;43673;51.058;3.734;2023-08-06T07:16:00;17.00;99.90
57843;DHT22;43673;51.058;3.734;2023-08-06T07:18:28;17.30;99.90
57843;DHT22;43673;51.058;3.734;2023-08-06T07:20:55;17.60;99.90
57843;DHT22;43673;51.058;3.734;2023-08-06T07:23:22;17.60;99.90
57843;DHT22;43673;51.058;3.734;2023-08-06T07:25:48;17.50;99.90
57843;DHT22;43673;51.058;3.734;2023-08-06T07:28:15;17.50;99.90
57843;DHT22;43673;51.058;3.734;2023-08-06T07:30:42;17.40;99.90
57843;DHT22;43673;51.058;3.734;2023-08-06T07:33:08;17.30;99.90
57843;DHT22;43673;51.058;3.734;2023-08-06T07:35:34;17.00;99.90
57843;DHT22;43673;51.058;3.734;2023-08-06T07:38:00;16.80;99.90
57843;DHT22;43673;51.058;3.734;2023-08-06T07:40:26;16.80;99.90
57843;DHT22;43673;51.058;3.734;2023-08-06T07:42:52;16.60;99.90
57843;DHT22;43673;51.058;3.734;2023-08-06T07:45:18;16.70;99.90
57843;DHT22;43673;51.058;3.734;2023-08-06T07:47:44;16.50;99.90
57843;DHT22;43673;51.058;3.734;2023-08-06T07:50:09;16.70;99.90
57843;DHT22;43673;51.058;3.734;2023-08-06T07:52:35;16.70;99.90
57843;DHT22;43673;51.058;3.734;2023-08-06T07:55:01;16.70;99.90
57843;DHT22;43673;51.058;3.734;2023-08-06T07:57:31;16.90;99.90
57843;DHT22;43673;51.058;3.734;2023-08-06T07:59:57;17.00;99.90
57843;DHT22;43673;51.058;3.734;2023-08-06T08:02:24;17.40;99.90
57843;DHT22;43673;51.058;3.734;2023-08-06T08:04:50;17.80;99.90
57843;DHT22;43673;51.058;3.734;2023-08-06T08:07:16;17.90;99.90
57843;DHT22;43673;51.058;3.734;2023-08-06T08:09:54;17.50;99.90
57843;DHT22;43673;51.058;3.734;2023-08-06T08:12:19;17.70;99.90
57843;DHT22;43673;51.058;3.734;2023-08-06T08:14:45;17.60;99.90
57843;DHT22;43673;51.058;3.734;2023-08-06T08:17:11;17.60;99.90
57843;DHT22;43673;51.058;3.734;2023-08-06T08:19:37;17.50;99.90
57843;DHT22;43673;51.058;3.734;2023-08-06T08:22:03;17.30;99.90
57843;DHT22;43673;51.058;3.734;2023-08-06T08:24:29;17.40;99.90
57843;DHT22;43673;51.058;3.734;2023-08-06T08:26:56;17.30;99.90
57843;DHT22;43673;51.058;3.734;2023-08-06T08:29:22;17.40;99.90
57843;DHT22;43673;51.058;3.734;2023-08-06T08:31:48;17.40;99.90
57843;DHT22;43673;51.058;3.734;2023-08-06T08:34:18;17.30;99.90
57843;DHT22;43673;51.058;3.734;2023-08-06T08:36:47;17.30;99.90
57843;DHT22;43673;51.058;3.734;2023-08-06T08:39:13;17.30;99.90
57843;DHT22;43673;51.058;3.734;2023-08-06T08:41:39;17.30;99.90
57843;DHT22;43673;51.058;3.734;2023-08-06T08:44:10;17.30;99.90
57843;DHT22;43673;51.058;3.734;2023-08-06T08:46:38;17.10;99.90
57843;DHT22;43673;51.058;3.734;2023-08-06T08:49:06;17.00;99.90
57843;DHT22;43673;51.058;3.734;2023-08-06T08:51:33;16.70;99.90
57843;DHT22;43673;51.058;3.734;2023-08-06T08:54:02;16.70;99.90
57843;DHT22;43673;51.058;3.734;2023-08-06T08:56:29;16.80;99.90
57843;DHT22;43673;51.058;3.734;2023-08-06T08:58:55;16.90;99.90
57843;DHT22;43673;51.058;3.734;2023-08-06T09:01:22;16.90;99.90
57843;DHT22;43673;51.058;3.734;2023-08-06T09:03:48;16.90;99.90
57843;DHT22;43673;51.058;3.734;2023-08-06T09:06:14;17.00;99.90
57843;DHT22;43673;51.058;3.734;2023-08-06T09:09:08;17.10;99.90
57843;DHT22;43673;51.058;3.734;2023-08-06T09:11:39;17.30;99.90
57843;DHT22;43673;51.058;3.734;2023-08-06T09:14:08;17.20;99.90
57843;DHT22;43673;51.058;3.734;2023-08-06T09:16:37;17.10;99.90
57843;DHT22;43673;51.058;3.734;2023-08-06T09:19:10;17.00;99.90
57843;DHT22;43673;51.058;3.734;2023-08-06T09:21:41;17.20;99.90
57843;DHT22;43673;51.058;3.734;2023-08-06T09:24:13;17.30;99.90
57843;DHT22;43673;51.058;3.734;2023-08-06T09:26:44;17.10;99.90
57843;DHT22;43673;51.058;3.734;2023-08-06T09:29:11;17.20;99.90
57843;DHT22;43673;51.058;3.734;2023-08-06T09:31:57;17.00;99.90
57843;DHT22;43673;51.058;3.734;2023-08-06T09:34:23;16.80;99.90
57843;DHT22;43673;51.058;3.734;2023-08-06T09:36:51;16.70;99.90
57843;DHT22;43673;51.058;3.734;2023-08-06T09:39:26;17.00;99.90
57843;DHT22;43673;51.058;3.734;2023-08-06T09:41:56;17.00;99.90
57843;DHT22;43673;51.058;3.734;2023-08-06T09:44:22;17.20;99.90
57843;DHT22;43673;51.058;3.734;2023-08-06T09:46:50;17.40;99.90
57843;DHT22;43673;51.058;3.734;2023-08-06T09:49:18;17.40;99.90
57843;DHT22;43673;51.058;3.734;2023-08-06T09:52:00;17.30;99.90
57843;DHT22;43673;51.058;3.734;2023-08-06T10:04:47;17.10;99.90
57843;DHT22;43673;51.058;3.734;2023-08-06T10:07:14;17.20;99.90
57843;DHT22;43673;51.058;3.734;2023-08-06T10:09:41;17.30;99.90
57843;DHT22;43673;51.058;3.734;2023-08-06T10:12:06;17.30;99.90
57843;DHT22;43673;51.058;3.734;2023-08-06T10:14:35;17.60;99.90
57843;DHT22;43673;51.058;3.734;2023-08-06T10:17:03;17.80;99.90
57843;DHT22;43673;51.058;3.734;2023-08-06T10:22:15;17.80;99.90
57843;DHT22;43673;51.058;3.734;2023-08-06T10:24:53;17.90;99.90
57843;DHT22;43673;51.058;3.734;2023-08-06T10:27:39;18.00;99.90
57843;DHT22;43673;51.058;3.734;2023-08-06T10:30:45;17.90;99.90
57843;DHT22;43673;51.058;3.734;2023-08-06T10:33:15;18.00;99.90
57843;DHT22;43673;51.058;3.734;2023-08-06T10:35:48;17.90;99.90
57843;DHT22;43673;51.058;3.734;2023-08-06T10:38:27;17.90;99.90
57843;DHT22;43673;51.058;3.734;2023-08-06T10:41:01;17.90;99.90
57843;DHT22;43673;51.058;3.734;2023-08-06T10:43:47;17.90;99.90
57843;DHT22;43673;51.058;3.734;2023-08-06T10:46:26;17.90;99.90
57843;DHT22;43673;51.058;3.734;2023-08-06T10:48:52;17.80;99.90
57843;DHT22;43673;51.058;3.734;2023-08-06T10:51:23;17.50;99.90
57843;DHT22;43673;51.058;3.734;2023-08-06T10:54:05;17.30;99.90
57843;DHT22;43673;51.058;3.734;2023-08-06T10:56:30;17.00;99.90
57843;DHT22;43673;51.058;3.734;2023-08-06T10:58:57;16.80;99.90
57843;DHT22;43673;51.058;3.734;2023-08-06T11:01:23;16.90;99.90
57843;DHT22;43673;51.058;3.734;2023-08-06T11:03:50;16.90;99.90
57843;DHT22;43673;51.058;3.734;2023-08-06T11:06:19;16.80;99.90
57843;DHT22;43673;51.058;3.734;2023-08-06T11:08:53;16.60;99.90
57843;DHT22;43673;51.058;3.734;2023-08-06T11:11:24;16.50;99.90
57843;DHT22;43673;51.058;3.734;2023-08-06T11:13:51;16.30;99.90
57843;DHT22;43673;51.058;3.734;2023-08-06T11:16:22;16.20;99.90
57843;DHT22;43673;51.058;3.734;2023-08-06T11:18:51;16.10;99.90
57843;DHT22;43673;51.058;3.734;2023-08-06T11:21:21;16.20;99.90
57843;DHT22;43673;51.058;3.734;2023-08-06T11:23:47;16.70;99.90
57843;DHT22;43673;51.058;3.734;2023-08-06T11:26:19;17.20;99.90
57843;DHT22;43673;51.058;3.734;2023-08-06T11:28:51;17.70;99.90
57843;DHT22;43673;51.058;3.734;2023-08-06T11:31:21;18.10;99.90
57843;DHT22;43673;51.058;3.734;2023-08-06T11:33:49;18.10;99.90
57843;DHT22;43673;51.058;3.734;2023-08-06T11:36:15;18.10;99.90
57843;DHT22;43673;51.058;3.734;2023-08-06T11:38:41;18.30;99.90
57843;DHT22;43673;51.058;3.734;2023-08-06T11:41:07;18.70;99.90
57843;DHT22;43673;51.058;3.734;2023-08-06T11:43:33;18.70;99.90
57843;DHT22;43673;51.058;3.734;2023-08-06T11:45:59;18.50;99.90
57843;DHT22;43673;51.058;3.734;2023-08-06T11:48:25;18.50;99.90
57843;DHT22;43673;51.058;3.734;2023-08-06T11:50:54;18.70;99.90
57843;DHT22;43673;51.058;3.734;2023-08-06T11:53:21;19.30;99.90
57843;DHT22;43673;51.058;3.734;2023-08-06T11:55:46;19.30;99.90
57843;DHT22;43673;51.058;3.734;2023-08-06T11:58:12;18.90;99.90
57843;DHT22;43673;51.058;3.734;2023-08-06T12:00:53;18.30;99.90
57843;DHT22;43673;51.058;3.734;2023-08-06T12:03:24;17.90;99.90
57843;DHT22;43673;51.058;3.734;2023-08-06T12:05:55;18.00;99.90
57843;DHT22;43673;51.058;3.734;2023-08-06T12:08:26;18.10;99.90
57843;DHT22;43673;51.058;3.734;2023-08-06T12:10:52;18.30;99.90
57843;DHT22;43673;51.058;3.734;2023-08-06T12:13:19;18.30;99.90
57843;DHT22;43673;51.058;3.734;2023-08-06T12:15:45;18.30;99.90
57843;DHT22;43673;51.058;3.734;2023-08-06T12:18:11;18.10;99.90
57843;DHT22;43673;51.058;3.734;2023-08-06T12:20:37;18.20;99.90
57843;DHT22;43673;51.058;3.734;2023-08-06T12:23:04;18.40;99.90
57843;DHT22;43673;51.058;3.734;2023-08-06T12:25:30;18.70;99.90
57843;DHT22;43673;51.058;3.734;2023-08-06T12:27:55;18.50;99.90
57843;DHT22;43673;51.058;3.734;2023-08-06T12:30:21;18.60;99.90
57843;DHT22;43673;51.058;3.734;2023-08-06T12:32:47;18.10;99.90
57843;DHT22;43673;51.058;3.734;2023-08-06T12:35:13;18.10;99.90
57843;DHT22;43673;51.058;3.734;2023-08-06T12:37:39;18.30;99.90
57843;DHT22;43673;51.058;3.734;2023-08-06T12:40:06;18.70;99.90
57843;DHT22;43673;51.058;3.734;2023-08-06T12:42:32;18.70;99.90
57843;DHT22;43673;51.058;3.734;2023-08-06T12:44:58;18.80;99.90
57843;DHT22;43673;51.058;3.734;2023-08-06T12:47:24;19.00;99.90
57843;DHT22;43673;51.058;3.734;2023-08-06T12:49:49;18.80;99.90
57843;DHT22;43673;51.058;3.734;2023-08-06T12:52:15;18.50;99.90
57843;DHT22;43673;51.058;3.734;2023-08-06T12:54:42;18.20;99.90
57843;DHT22;43673;51.058;3.734;2023-08-06T12:57:08;18.10;99.90
57843;DHT22;43673;51.058;3.734;2023-08-06T12:59:34;18.00;99.90
57843;DHT22;43673;51.058;3.734;2023-08-06T13:02:02;17.70;99.90
57843;DHT22;43673;51.058;3.734;2023-08-06T13:04:28;17.60;99.90
57843;DHT22;43673;51.058;3.734;2023-08-06T13:06:53;17.80;99.90
57843;DHT22;43673;51.058;3.734;2023-08-06T13:09:19;18.00;99.90
57843;DHT22;43673;51.058;3.734;2023-08-06T13:11:46;18.50;99.90
57843;DHT22;43673;51.058;3.734;2023-08-06T13:14:15;18.70;99.90
57843;DHT22;43673;51.058;3.734;2023-08-06T13:16:42;19.10;99.90
57843;DHT22;43673;51.058;3.734;2023-08-06T13:19:09;19.00;99.90
57843;DHT22;43673;51.058;3.734;2023-08-06T13:24:07;18.70;99.90
57843;DHT22;43673;51.058;3.734;2023-08-06T13:26:33;18.50;99.90
57843;DHT22;43673;51.058;3.734;2023-08-06T13:29:00;18.40;99.90
57843;DHT22;43673;51.058;3.734;2023-08-06T13:31:26;18.10;99.90
57843;DHT22;43673;51.058;3.734;2023-08-06T13:33:56;18.30;99.90
57843;DHT22;43673;51.058;3.734;2023-08-06T13:36:24;18.40;99.90
57843;DHT22;43673;51.058;3.734;2023-08-06T13:38:50;18.30;99.90
57843;DHT22;43673;51.058;3.734;2023-08-06T13:41:16;18.20;99.90
57843;DHT22;43673;51.058;3.734;2023-08-06T13:43:42;18.20;99.90
57843;DHT22;43673;51.058;3.734;2023-08-06T13:46:09;18.20;99.90
57843;DHT22;43673;51.058;3.734;2023-08-06T13:48:39;18.20;99.90
57843;DHT22;43673;51.058;3.734;2023-08-06T13:51:05;18.20;99.90
57843;DHT22;43673;51.058;3.734;2023-08-06T13:53:30;18.40;99.90
57843;DHT22;43673;51.058;3.734;2023-08-06T13:55:56;18.50;99.90
57843;DHT22;43673;51.058;3.734;2023-08-06T13:58:23;18.60;99.90
57843;DHT22;43673;51.058;3.734;2023-08-06T14:00:49;18.60;99.90
57843;DHT22;43673;51.058;3.734;2023-08-06T14:03:17;18.80;99.90
57843;DHT22;43673;51.058;3.734;2023-08-06T14:05:46;18.80;99.90
57843;DHT22;43673;51.058;3.734;2023-08-06T14:08:12;19.20;99.90
57843;DHT22;43673;51.058;3.734;2023-08-06T14:10:39;19.40;99.90
57843;DHT22;43673;51.058;3.734;2023-08-06T14:13:04;19.80;99.90
57843;DHT22;43673;51.058;3.734;2023-08-06T14:15:30;19.80;99.90
57843;DHT22;43673;51.058;3.734;2023-08-06T14:17:56;19.90;99.90
57843;DHT22;43673;51.058;3.734;2023-08-06T14:20:22;19.70;99.90
57843;DHT22;43673;51.058;3.734;2023-08-06T14:22:48;19.70;99.90
57843;DHT22;43673;51.058;3.734;2023-08-06T14:25:14;19.70;99.90
57843;DHT22;43673;51.058;3.734;2023-08-06T14:27:40;19.60;99.90
57843;DHT22;43673;51.058;3.734;2023-08-06T14:30:07;19.70;99.90
57843;DHT22;43673;51.058;3.734;2023-08-06T14:32:33;19.70;99.90
57843;DHT22;43673;51.058;3.734;2023-08-06T14:34:59;19.60;99.90
57843;DHT22;43673;51.058;3.734;2023-08-06T14:37:25;19.50;99.90
57843;DHT22;43673;51.058;3.734;2023-08-06T14:39:51;19.50;99.90
57843;DHT22;43673;51.058;3.734;2023-08-06T14:42:18;19.60;99.90
57843;DHT22;43673;51.058;3.734;2023-08-06T14:44:44;19.70;99.90
57843;DHT22;43673;51.058;3.734;2023-08-06T14:47:10;19.90;99.90
57843;DHT22;43673;51.058;3.734;2023-08-06T14:49:35;19.80;99.90
57843;DHT22;43673;51.058;3.734;2023-08-06T14:52:03;19.50;99.90
57843;DHT22;43673;51.058;3.734;2023-08-06T14:54:29;19.40;99.90
57843;DHT22;43673;51.058;3.734;2023-08-06T14:56:55;19.30;99.90
57843;DHT22;43673;51.058;3.734;2023-08-06T14:59:20;19.20;99.90
57843;DHT22;43673;51.058;3.734;2023-08-06T15:01:46;19.40;99.90
57843;DHT22;43673;51.058;3.734;2023-08-06T15:04:12;19.70;99.90
57843;DHT22;43673;51.058;3.734;2023-08-06T15:06:38;19.70;99.90
57843;DHT22;43673;51.058;3.734;2023-08-06T15:09:03;19.70;99.90
57843;DHT22;43673;51.058;3.734;2023-08-06T15:11:29;19.60;99.90
57843;DHT22;43673;51.058;3.734;2023-08-06T15:13:55;19.70;99.90
57843;DHT22;43673;51.058;3.734;2023-08-06T15:16:20;19.80;99.90
57843;DHT22;43673;51.058;3.734;2023-08-06T15:18:46;20.00;99.90
57843;DHT22;43673;51.058;3.734;2023-08-06T15:21:12;20.00;99.90
57843;DHT22;43673;51.058;3.734;2023-08-06T15:23:37;19.90;99.90
57843;DHT22;43673;51.058;3.734;2023-08-06T15:26:03;19.80;99.90
57843;DHT22;43673;51.058;3.734;2023-08-06T15:28:30;19.80;99.90
57843;DHT22;43673;51.058;3.734;2023-08-06T15:30:56;19.70;99.90
57843;DHT22;43673;51.058;3.734;2023-08-06T15:33:22;20.00;99.90
57843;DHT22;43673;51.058;3.734;2023-08-06T15:35:48;20.00;99.90
57843;DHT22;43673;51.058;3.734;2023-08-06T15:38:14;19.80;99.90
57843;DHT22;43673;51.058;3.734;2023-08-06T15:40:40;19.80;99.90
57843;DHT22;43673;51.058;3.734;2023-08-06T15:43:06;19.50;99.90
57843;DHT22;43673;51.058;3.734;2023-08-06T15:45:32;19.40;99.90
57843;DHT22;43673;51.058;3.734;2023-08-06T15:47:57;19.30;99.90
57843;DHT22;43673;51.058;3.734;2023-08-06T15:50:23;19.20;99.90
57843;DHT22;43673;51.058;3.734;2023-08-06T15:52:49;19.10;99.90
57843;DHT22;43673;51.058;3.734;2023-08-06T15:55:15;19.00;99.90
57843;DHT22;43673;51.058;3.734;2023-08-06T15:57:41;18.90;99.90
57843;DHT22;43673;51.058;3.734;2023-08-06T16:00:09;18.90;99.90
57843;DHT22;43673;51.058;3.734;2023-08-06T16:02:35;18.80;99.90
57843;DHT22;43673;51.058;3.734;2023-08-06T16:05:04;18.90;99.90
57843;DHT22;43673;51.058;3.734;2023-08-06T16:07:36;18.90;99.90
57843;DHT22;43673;51.058;3.734;2023-08-06T16:10:02;19.00;99.90